createdAt,value
2023-08-29T00:00:21.410Z,2.10
2023-08-29T00:02:47.798Z,2.42
2023-08-29T00:05:14.210Z,2.90
2023-08-29T00:07:40.525Z,2.40
2023-08-29T00:10:06.816Z,2.88
2023-08-29T00:12:33.169Z,2.42
2023-08-29T00:14:59.485Z,2.20
2023-08-29T00:17:25.689Z,2.70
2023-08-29T00:19:51.944Z,2.35
2023-08-29T00:22:18.239Z,2.65
2023-08-29T00:24:44.508Z,2.53
2023-08-29T00:27:10.968Z,2.63
2023-08-29T00:29:37.276Z,3.20
2023-08-29T00:32:03.645Z,2.80
2023-08-29T00:34:30.023Z,3.00
2023-08-29T00:36:56.322Z,2.85
2023-08-29T00:39:22.581Z,3.13
2023-08-29T00:41:48.869Z,2.58
2023-08-29T00:44:15.117Z,3.10
2023-08-29T00:46:41.370Z,3.33
2023-08-29T00:49:07.716Z,3.28
2023-08-29T00:51:34.049Z,3.40
2023-08-29T00:54:00.366Z,3.03
2023-08-29T00:56:26.684Z,3.22
2023-08-29T00:58:53.001Z,3.25
2023-08-29T01:01:19.421Z,3.42
2023-08-29T01:03:45.835Z,3.50
2023-08-29T01:06:12.140Z,3.53
2023-08-29T01:08:38.483Z,3.40
2023-08-29T01:11:04.885Z,3.25
2023-08-29T01:13:31.205Z,3.20
2023-08-29T01:15:57.543Z,4.03
2023-08-29T01:18:23.895Z,3.85
2023-08-29T01:20:50.200Z,3.28
2023-08-29T01:23:16.434Z,3.20
2023-08-29T01:25:42.730Z,3.60
2023-08-29T01:28:09.068Z,3.58
2023-08-29T01:30:35.310Z,3.30
2023-08-29T01:33:01.624Z,3.80
2023-08-29T01:35:27.903Z,3.55
2023-08-29T01:37:54.295Z,3.38
2023-08-29T01:40:20.752Z,3.20
2023-08-29T01:42:46.990Z,3.65
2023-08-29T01:45:13.307Z,3.45
2023-08-29T01:47:39.720Z,3.33
2023-08-29T01:50:06.077Z,3.22
2023-08-29T01:52:32.321Z,3.25
2023-08-29T01:54:58.653Z,3.50
2023-08-29T01:57:24.918Z,3.13
2023-08-29T01:59:51.178Z,2.88
2023-08-29T02:02:17.442Z,3.40
2023-08-29T02:04:43.675Z,3.15
2023-08-29T02:07:09.984Z,3.22
2023-08-29T02:09:36.189Z,3.35
2023-08-29T02:12:02.720Z,3.45
2023-08-29T02:14:29.007Z,2.80
2023-08-29T02:16:55.334Z,3.22
2023-08-29T02:19:24.524Z,3.70
2023-08-29T02:21:50.786Z,3.30
2023-08-29T02:24:17.072Z,3.35
2023-08-29T02:26:43.319Z,3.33
2023-08-29T02:29:09.602Z,3.58
2023-08-29T02:31:35.925Z,3.10
2023-08-29T02:34:02.287Z,3.70
2023-08-29T02:36:28.582Z,3.92
2023-08-29T02:38:54.810Z,3.10
2023-08-29T02:41:21.148Z,3.00
2023-08-29T02:43:47.402Z,3.10
2023-08-29T02:46:13.727Z,3.47
2023-08-29T02:51:20.152Z,3.22
2023-08-29T02:53:46.412Z,3.22
2023-08-29T02:56:12.670Z,3.80
2023-08-29T02:58:39.068Z,3.38
2023-08-29T03:01:05.354Z,2.90
2023-08-29T03:03:31.698Z,2.97
2023-08-29T03:05:58.026Z,3.30
2023-08-29T03:08:24.366Z,3.45
2023-08-29T03:10:50.766Z,3.30
2023-08-29T03:13:17.096Z,3.15
2023-08-29T03:15:43.325Z,3.00
2023-08-29T03:18:09.854Z,3.78
2023-08-29T03:20:36.508Z,3.50
2023-08-29T03:23:02.921Z,2.95
2023-08-29T03:25:29.243Z,3.08
2023-08-29T03:27:55.523Z,3.20
2023-08-29T03:30:21.915Z,3.55
2023-08-29T03:32:48.341Z,3.17
2023-08-29T03:35:14.618Z,3.30
2023-08-29T03:37:40.875Z,3.40
2023-08-29T03:40:07.107Z,3.38
2023-08-29T03:42:33.368Z,3.30
2023-08-29T03:44:59.627Z,3.20
2023-08-29T03:47:25.988Z,3.17
2023-08-29T03:49:52.278Z,3.42
2023-08-29T03:52:18.529Z,3.25
2023-08-29T03:54:44.746Z,3.47
2023-08-29T03:57:11.065Z,3.05
2023-08-29T03:59:37.319Z,3.60
2023-08-29T04:02:03.641Z,3.33
2023-08-29T04:04:30.118Z,3.53
2023-08-29T04:06:56.588Z,3.30
2023-08-29T04:09:22.966Z,3.35
2023-08-29T04:11:49.520Z,3.25
2023-08-29T04:14:15.749Z,3.50
2023-08-29T04:16:42.143Z,3.42
2023-08-29T04:19:08.464Z,3.50
2023-08-29T04:21:34.796Z,3.50
2023-08-29T04:24:01.150Z,3.78
2023-08-29T04:26:27.416Z,3.30
2023-08-29T04:28:53.717Z,3.75
2023-08-29T04:31:20.064Z,3.42
2023-08-29T04:33:46.380Z,3.63
2023-08-29T04:36:12.677Z,3.67
2023-08-29T04:38:38.981Z,3.10
2023-08-29T04:41:05.231Z,4.03
2023-08-29T04:43:31.442Z,3.85
2023-08-29T04:45:57.723Z,4.18
2023-08-29T04:48:23.988Z,3.83
2023-08-29T04:50:50.261Z,3.67
2023-08-29T04:53:16.485Z,3.90
2023-08-29T04:55:42.772Z,3.97
2023-08-29T04:58:09.071Z,3.78
2023-08-29T05:00:35.344Z,3.80
2023-08-29T05:03:01.672Z,3.88
2023-08-29T05:05:28.084Z,3.65
2023-08-29T05:07:54.436Z,3.72
2023-08-29T05:10:20.742Z,3.78
2023-08-29T05:12:46.992Z,3.88
2023-08-29T05:15:13.972Z,4.50
2023-08-29T05:17:40.289Z,4.43
2023-08-29T05:20:06.554Z,4.95
2023-08-29T05:22:32.803Z,4.25
2023-08-29T05:24:59.042Z,3.72
2023-08-29T05:27:25.284Z,4.25
2023-08-29T05:29:51.568Z,4.40
2023-08-29T05:32:17.794Z,4.82
2023-08-29T05:34:44.027Z,4.03
2023-08-29T05:37:10.287Z,4.50
2023-08-29T05:39:36.458Z,4.53
2023-08-29T05:42:02.700Z,3.97
2023-08-29T05:44:28.908Z,4.03
2023-08-29T05:46:55.158Z,4.18
2023-08-29T05:49:21.572Z,4.72
2023-08-29T05:51:52.872Z,3.72
2023-08-29T05:57:09.939Z,4.50
2023-08-29T05:59:36.166Z,4.05
2023-08-29T06:02:02.490Z,4.28
2023-08-29T06:04:28.683Z,4.07
2023-08-29T06:06:54.909Z,4.45
2023-08-29T06:09:21.105Z,4.63
2023-08-29T06:11:47.333Z,4.10
2023-08-29T06:14:13.531Z,4.47
2023-08-29T06:16:39.771Z,4.57
2023-08-29T06:19:05.964Z,3.90
2023-08-29T06:21:32.178Z,4.68
2023-08-29T06:23:58.432Z,4.10
2023-08-29T06:26:24.634Z,4.43
2023-08-29T06:28:50.819Z,4.50
2023-08-29T06:31:17.138Z,4.47
2023-08-29T06:33:43.391Z,4.57
2023-08-29T06:36:09.582Z,3.95
2023-08-29T06:38:35.968Z,5.05
2023-08-29T06:41:02.403Z,3.55
2023-08-29T06:43:28.609Z,4.82
2023-08-29T06:45:54.844Z,4.45
2023-08-29T06:48:21.041Z,3.65
2023-08-29T06:50:47.274Z,4.10
2023-08-29T06:53:13.512Z,3.83
2023-08-29T06:55:39.747Z,3.67
2023-08-29T06:58:06.150Z,3.90
2023-08-29T07:00:32.608Z,3.75
2023-08-29T07:02:58.863Z,3.33
2023-08-29T07:05:25.138Z,3.55
2023-08-29T07:07:51.398Z,3.90
2023-08-29T07:10:17.636Z,3.55
2023-08-29T07:12:43.858Z,3.60
2023-08-29T07:15:10.074Z,3.78
2023-08-29T07:17:44.242Z,3.53
2023-08-29T07:20:10.745Z,3.33
2023-08-29T07:22:36.981Z,3.88
2023-08-29T07:25:03.231Z,3.70
2023-08-29T07:27:29.427Z,3.60
2023-08-29T07:29:55.671Z,3.80
2023-08-29T07:32:21.915Z,3.50
2023-08-29T07:34:48.156Z,3.75
2023-08-29T07:37:14.437Z,4.05
2023-08-29T07:39:40.710Z,3.50
2023-08-29T07:42:06.933Z,3.83
2023-08-29T07:44:33.220Z,3.78
2023-08-29T07:47:13.947Z,4.20
2023-08-29T07:49:40.944Z,4.35
2023-08-29T07:52:07.149Z,4.32
2023-08-29T07:54:33.403Z,4.10
2023-08-29T07:56:59.651Z,4.13
2023-08-29T07:59:25.975Z,3.95
2023-08-29T08:01:52.202Z,3.50
2023-08-29T08:04:18.401Z,3.67
2023-08-29T08:06:44.674Z,3.90
2023-08-29T08:09:10.885Z,5.03
2023-08-29T08:11:37.063Z,4.20
2023-08-29T08:14:04.084Z,3.22
2023-08-29T08:16:30.299Z,4.40
2023-08-29T08:18:56.533Z,3.33
2023-08-29T08:21:22.774Z,3.70
2023-08-29T08:23:49.061Z,3.90
2023-08-29T08:26:15.297Z,4.18
2023-08-29T08:28:41.503Z,3.45
2023-08-29T08:31:07.701Z,3.60
2023-08-29T08:33:33.885Z,3.70
2023-08-29T08:36:00.113Z,3.33
2023-08-29T08:38:26.314Z,4.10
2023-08-29T08:40:52.545Z,4.15
2023-08-29T08:43:18.770Z,4.55
2023-08-29T08:45:45.033Z,3.92
2023-08-29T08:48:11.362Z,4.18
2023-08-29T08:50:37.562Z,4.20
2023-08-29T08:53:03.760Z,4.03
2023-08-29T08:55:29.950Z,4.05
2023-08-29T08:57:56.174Z,3.92
2023-08-29T09:00:22.457Z,4.03
2023-08-29T09:02:48.690Z,4.88
2023-08-29T09:05:14.977Z,4.05
2023-08-29T09:07:41.240Z,4.25
2023-08-29T09:10:07.544Z,3.75
2023-08-29T09:12:33.765Z,4.15
2023-08-29T09:15:00.038Z,4.30
2023-08-29T09:17:29.165Z,3.88
2023-08-29T09:19:55.485Z,4.00
2023-08-29T09:22:21.672Z,3.70
2023-08-29T09:24:47.877Z,3.25
2023-08-29T09:27:14.092Z,3.85
2023-08-29T09:29:40.277Z,3.95
2023-08-29T09:32:06.533Z,4.18
2023-08-29T09:34:32.730Z,4.15
2023-08-29T09:36:58.954Z,4.18
2023-08-29T09:39:25.131Z,4.00
2023-08-29T09:41:51.352Z,3.58
2023-08-29T09:44:17.591Z,4.45
2023-08-29T09:46:43.796Z,3.90
2023-08-29T09:49:10.024Z,5.05
2023-08-29T09:51:36.254Z,4.10
2023-08-29T09:54:02.455Z,3.67
2023-08-29T09:56:36.138Z,3.50
2023-08-29T09:59:02.327Z,4.32
2023-08-29T10:01:28.568Z,3.50
2023-08-29T10:03:54.853Z,3.42
2023-08-29T10:06:21.104Z,3.53
2023-08-29T10:08:47.309Z,3.58
2023-08-29T10:11:13.504Z,3.65
2023-08-29T10:13:39.797Z,3.88
2023-08-29T10:16:06.192Z,3.60
2023-08-29T10:18:32.448Z,3.28
2023-08-29T10:20:59.350Z,3.10
2023-08-29T10:23:26.850Z,2.80
2023-08-29T10:25:53.047Z,2.88
2023-08-29T10:28:19.294Z,3.22
2023-08-29T10:30:45.661Z,3.30
2023-08-29T10:33:12.055Z,3.15
2023-08-29T10:35:38.471Z,2.28
2023-08-29T10:38:04.967Z,2.72
2023-08-29T10:40:31.484Z,3.45
2023-08-29T10:42:57.701Z,3.28
2023-08-29T10:45:23.918Z,3.00
2023-08-29T10:47:50.189Z,3.05
2023-08-29T10:50:16.507Z,2.10
2023-08-29T10:52:42.732Z,2.10
2023-08-29T10:55:08.954Z,2.25
2023-08-29T10:57:35.265Z,2.22
2023-08-29T11:00:01.473Z,2.83
2023-08-29T11:02:27.781Z,2.28
2023-08-29T11:04:56.490Z,2.20
2023-08-29T11:07:23.262Z,2.17
2023-08-29T11:09:49.491Z,2.53
2023-08-29T11:12:16.196Z,2.40
2023-08-29T11:14:42.462Z,2.00
2023-08-29T11:17:08.682Z,2.08
2023-08-29T11:19:34.908Z,2.05
2023-08-29T11:22:01.178Z,1.90
2023-08-29T11:24:27.374Z,2.28
2023-08-29T11:26:53.564Z,1.95
2023-08-29T11:29:19.813Z,1.95
2023-08-29T11:31:46.013Z,2.10
2023-08-29T11:34:12.239Z,2.00
2023-08-29T11:36:38.465Z,1.55
2023-08-29T11:39:04.717Z,1.60
2023-08-29T11:41:39.105Z,1.48
2023-08-29T11:44:34.009Z,1.50
2023-08-29T11:47:03.551Z,1.65
2023-08-29T11:49:29.742Z,2.00
2023-08-29T11:51:55.951Z,1.63
2023-08-29T11:54:22.136Z,1.60
2023-08-29T11:56:48.344Z,1.88
2023-08-29T11:59:14.534Z,1.33
2023-08-29T12:01:40.761Z,1.65
2023-08-29T12:04:07.044Z,1.67
2023-08-29T12:06:33.271Z,1.30
2023-08-29T12:09:01.230Z,1.52
2023-08-29T12:11:27.556Z,1.27
2023-08-29T12:13:53.819Z,1.42
2023-08-29T12:16:20.047Z,1.90
2023-08-29T12:18:46.386Z,1.77
2023-08-29T12:21:12.787Z,1.20
2023-08-29T12:23:38.971Z,1.33
2023-08-29T12:26:05.219Z,1.30
2023-08-29T12:28:31.441Z,1.63
2023-08-29T12:30:57.741Z,1.35
2023-08-29T12:33:24.002Z,1.45
2023-08-29T12:35:50.208Z,1.80
2023-08-29T12:38:16.481Z,1.40
2023-08-29T12:40:42.709Z,1.60
2023-08-29T12:43:08.939Z,1.30
2023-08-29T12:45:48.556Z,1.40
2023-08-29T12:48:21.395Z,1.40
2023-08-29T12:50:47.592Z,1.35
2023-08-29T12:53:13.825Z,1.70
2023-08-29T12:55:40.039Z,1.80
2023-08-29T12:58:06.413Z,1.70
2023-08-29T13:00:32.778Z,1.70
2023-08-29T13:02:59.096Z,1.52
2023-08-29T13:05:25.391Z,1.55
2023-08-29T13:07:51.570Z,1.50
2023-08-29T13:10:17.826Z,1.58
2023-08-29T13:12:44.034Z,1.25
2023-08-29T13:15:11.304Z,1.92
2023-08-29T13:17:37.594Z,1.60
2023-08-29T13:20:03.826Z,1.60
2023-08-29T13:22:30.080Z,1.77
2023-08-29T13:24:56.295Z,1.80
2023-08-29T13:27:22.541Z,1.90
2023-08-29T13:29:48.810Z,1.60
2023-08-29T13:32:14.998Z,1.60
2023-08-29T13:34:41.299Z,1.90
2023-08-29T13:37:07.502Z,1.63
2023-08-29T13:39:33.683Z,1.65
2023-08-29T13:42:00.364Z,1.67
2023-08-29T13:44:26.600Z,1.80
2023-08-29T13:46:52.825Z,1.33
2023-08-29T13:49:19.044Z,1.23
2023-08-29T13:51:45.304Z,1.05
2023-08-29T13:54:11.509Z,0.90
2023-08-29T13:56:37.781Z,1.20
2023-08-29T13:59:03.971Z,1.27
2023-08-29T14:01:30.218Z,1.20
2023-08-29T14:03:56.478Z,1.13
2023-08-29T14:06:22.699Z,0.98
2023-08-29T14:08:48.922Z,1.10
2023-08-29T14:11:15.095Z,0.90
2023-08-29T14:13:41.331Z,0.73
2023-08-29T14:16:07.587Z,1.33
2023-08-29T14:18:33.918Z,1.10
2023-08-29T14:21:00.135Z,0.90
2023-08-29T14:23:26.387Z,1.02
2023-08-29T14:25:52.582Z,1.15
2023-08-29T14:28:18.825Z,1.45
2023-08-29T14:30:45.034Z,0.93
2023-08-29T14:33:13.438Z,1.00
2023-08-29T14:35:39.834Z,1.20
2023-08-29T14:38:06.411Z,0.90
2023-08-29T14:40:32.963Z,1.20
2023-08-29T14:42:59.196Z,1.42
2023-08-29T14:45:25.453Z,1.95
2023-08-29T14:47:51.882Z,1.88
2023-08-29T14:50:18.174Z,1.67
2023-08-29T14:52:44.444Z,1.98
2023-08-29T14:55:10.694Z,1.95
2023-08-29T14:57:36.877Z,2.10
2023-08-29T15:00:03.068Z,1.60
2023-08-29T15:02:29.513Z,1.90
2023-08-29T15:04:55.772Z,2.00
2023-08-29T15:07:22.001Z,1.90
2023-08-29T15:09:48.231Z,1.88
2023-08-29T15:12:14.460Z,1.73
2023-08-29T15:14:40.692Z,2.00
2023-08-29T15:17:06.944Z,1.98
2023-08-29T15:19:33.156Z,1.63
2023-08-29T15:21:59.379Z,1.90
2023-08-29T15:24:25.620Z,1.73
2023-08-29T15:26:51.877Z,1.70
2023-08-29T15:29:18.089Z,1.80
2023-08-29T15:31:44.325Z,1.90
2023-08-29T15:34:10.537Z,1.52
2023-08-29T15:36:36.730Z,1.50
2023-08-29T15:39:02.978Z,1.70
2023-08-29T15:41:29.219Z,1.67
2023-08-29T15:43:55.441Z,1.60
2023-08-29T15:46:21.694Z,1.67
2023-08-29T15:48:48.016Z,1.50
2023-08-29T15:51:16.683Z,1.60
2023-08-29T15:53:43.070Z,1.55
2023-08-29T15:56:10.551Z,1.67
2023-08-29T15:58:36.766Z,1.75
2023-08-29T16:01:03.027Z,1.38
2023-08-29T16:03:29.456Z,1.50
2023-08-29T16:05:55.685Z,1.80
2023-08-29T16:08:21.889Z,1.20
2023-08-29T16:10:48.116Z,1.30
2023-08-29T16:13:14.362Z,1.40
2023-08-29T16:15:40.597Z,1.08
2023-08-29T16:18:07.046Z,1.33
2023-08-29T16:20:33.568Z,1.80
2023-08-29T16:22:59.811Z,1.60
2023-08-29T16:25:26.045Z,2.00
2023-08-29T16:27:52.250Z,1.63
2023-08-29T16:30:18.517Z,1.77
2023-08-29T16:32:44.751Z,1.90
2023-08-29T16:35:10.989Z,2.08
2023-08-29T16:37:37.357Z,2.00
2023-08-29T16:40:03.556Z,1.60
2023-08-29T16:42:31.001Z,2.05
2023-08-29T16:44:57.213Z,1.90
2023-08-29T16:47:23.387Z,1.90
2023-08-29T16:49:49.621Z,1.65
2023-08-29T16:52:15.825Z,1.65
2023-08-29T16:54:42.028Z,2.17
2023-08-29T16:57:08.283Z,1.80
2023-08-29T16:59:34.481Z,1.77
2023-08-29T17:02:00.688Z,1.92
2023-08-29T17:04:26.913Z,1.88
2023-08-29T17:06:53.122Z,2.00
2023-08-29T17:09:19.345Z,1.90
2023-08-29T17:11:45.572Z,1.88
2023-08-29T17:14:11.814Z,1.90
2023-08-29T17:16:38.106Z,1.90
2023-08-29T17:19:04.310Z,1.67
2023-08-29T17:21:30.549Z,1.50
2023-08-29T17:23:56.783Z,1.80
2023-08-29T17:26:22.954Z,1.58
2023-08-29T17:28:49.202Z,1.65
2023-08-29T17:31:15.458Z,1.40
2023-08-29T17:33:41.659Z,1.40
2023-08-29T17:36:07.922Z,1.80
2023-08-29T17:38:34.182Z,1.48
2023-08-29T17:41:00.543Z,1.50
2023-08-29T17:43:26.838Z,1.52
2023-08-29T17:45:53.148Z,1.40
2023-08-29T17:48:19.355Z,1.35
2023-08-29T17:50:45.728Z,1.40
2023-08-29T17:53:11.928Z,1.70
2023-08-29T17:55:38.137Z,1.60
2023-08-29T17:58:04.389Z,1.40
2023-08-29T18:00:30.629Z,1.70
2023-08-29T18:02:56.931Z,1.83
2023-08-29T18:05:25.224Z,1.70
2023-08-29T18:07:51.826Z,1.50
2023-08-29T18:10:18.056Z,1.95
2023-08-29T18:12:44.275Z,1.70
2023-08-29T18:15:11.843Z,1.65
2023-08-29T18:17:38.234Z,1.90
2023-08-29T18:20:04.553Z,2.10
2023-08-29T18:22:30.826Z,1.83
2023-08-29T18:24:57.203Z,1.75
2023-08-29T18:27:26.501Z,2.00
2023-08-29T18:29:52.704Z,1.90
2023-08-29T18:32:18.919Z,1.63
2023-08-29T18:34:45.146Z,1.80
2023-08-29T18:37:11.408Z,1.90
2023-08-29T18:39:37.649Z,2.65
2023-08-29T18:42:03.917Z,2.00
2023-08-29T18:44:30.168Z,1.70
2023-08-29T18:46:56.397Z,2.08
2023-08-29T18:49:22.634Z,2.05
2023-08-29T18:51:48.879Z,1.90
2023-08-29T18:54:15.147Z,1.92
2023-08-29T18:56:41.341Z,2.00
2023-08-29T18:59:07.544Z,1.90
2023-08-29T19:01:33.763Z,1.70
2023-08-29T19:03:59.949Z,2.10
2023-08-29T19:06:26.124Z,1.80
2023-08-29T19:08:52.383Z,1.75
2023-08-29T19:11:18.634Z,2.03
2023-08-29T19:13:44.878Z,2.00
2023-08-29T19:16:11.172Z,1.95
2023-08-29T19:18:39.892Z,2.05
2023-08-29T19:21:06.640Z,2.10
2023-08-29T19:23:32.887Z,2.00
2023-08-29T19:25:59.089Z,2.20
2023-08-29T19:28:25.318Z,1.92
2023-08-29T19:30:51.531Z,2.10
2023-08-29T19:33:17.808Z,2.05
2023-08-29T19:35:44.125Z,2.08
2023-08-29T19:38:10.664Z,2.05
2023-08-29T19:40:37.166Z,2.17
2023-08-29T19:43:03.396Z,2.08
2023-08-29T19:45:29.675Z,2.05
2023-08-29T19:47:55.892Z,2.03
2023-08-29T19:50:22.098Z,2.08
2023-08-29T19:52:48.294Z,2.30
2023-08-29T19:55:14.519Z,1.92
2023-08-29T19:57:40.716Z,2.00
2023-08-29T20:00:06.961Z,2.28
2023-08-29T20:02:33.232Z,2.22
2023-08-29T20:04:59.441Z,2.13
2023-08-29T20:07:25.634Z,2.10
2023-08-29T20:09:51.869Z,2.25
2023-08-29T20:12:18.065Z,2.00
2023-08-29T20:14:44.290Z,2.20
2023-08-29T20:17:10.473Z,2.28
2023-08-29T20:19:36.732Z,2.33
2023-08-29T20:22:03.004Z,2.38
2023-08-29T20:24:29.200Z,2.20
2023-08-29T20:26:55.444Z,2.30
2023-08-29T20:29:21.675Z,1.92
2023-08-29T20:31:47.912Z,2.28
2023-08-29T20:34:14.165Z,2.00
2023-08-29T20:36:40.378Z,2.47
2023-08-29T20:39:07.323Z,1.98
2023-08-29T20:41:33.524Z,2.08
2023-08-29T20:43:59.717Z,2.20
2023-08-29T20:46:25.992Z,2.22
2023-08-29T20:48:52.305Z,2.10
2023-08-29T20:51:18.577Z,2.10
2023-08-29T20:53:44.778Z,2.15
2023-08-29T20:56:11.074Z,2.30
2023-08-29T20:58:37.324Z,2.50
2023-08-29T21:01:03.558Z,2.42
2023-08-29T21:03:30.020Z,2.45
2023-08-29T21:05:56.393Z,1.77
2023-08-29T21:08:22.767Z,2.25
2023-08-29T21:10:48.987Z,2.00
2023-08-29T21:13:15.214Z,2.30
2023-08-29T21:15:41.472Z,1.90
2023-08-29T21:18:08.051Z,1.92
2023-08-29T21:20:34.487Z,2.10
2023-08-29T21:23:00.738Z,2.40
2023-08-29T21:25:26.977Z,2.30
2023-08-29T21:27:53.185Z,2.38
2023-08-29T21:30:19.402Z,1.90
2023-08-29T21:32:45.645Z,2.40
2023-08-29T21:35:11.885Z,2.13
2023-08-29T21:37:38.134Z,2.00
2023-08-29T21:40:04.376Z,2.10
2023-08-29T21:42:30.549Z,2.03
2023-08-29T21:44:56.774Z,2.20
2023-08-29T21:47:23.001Z,2.30
2023-08-29T21:49:49.219Z,1.88
2023-08-29T21:52:15.420Z,2.17
2023-08-29T21:54:41.612Z,2.20
2023-08-29T21:57:07.820Z,2.55
2023-08-29T21:59:34.041Z,2.30
2023-08-29T22:02:00.272Z,2.30
2023-08-29T22:04:26.457Z,2.08
2023-08-29T22:06:52.693Z,2.30
2023-08-29T22:09:18.918Z,2.30
2023-08-29T22:11:45.155Z,2.40
2023-08-29T22:14:11.350Z,2.42
2023-08-29T22:16:37.564Z,2.60
2023-08-29T22:19:03.819Z,2.30
2023-08-29T22:21:29.994Z,2.20
2023-08-29T22:23:56.248Z,2.15
2023-08-29T22:26:22.439Z,2.40
2023-08-29T22:28:48.701Z,2.40
2023-08-29T22:31:14.943Z,2.70
2023-08-29T22:33:41.195Z,6.95
2023-08-29T22:36:07.434Z,6.47
2023-08-29T22:38:33.602Z,3.72
2023-08-29T22:40:59.910Z,2.55
2023-08-29T22:43:26.149Z,3.08
2023-08-29T22:45:52.356Z,2.58
2023-08-29T22:48:18.744Z,2.80
2023-08-29T22:50:45.063Z,2.63
2023-08-29T22:53:11.318Z,2.58
2023-08-29T22:55:37.516Z,2.63
2023-08-29T22:58:03.742Z,2.17
2023-08-29T23:00:30.042Z,2.53
2023-08-29T23:02:56.443Z,2.78
2023-08-29T23:05:22.810Z,2.83
2023-08-29T23:07:49.047Z,2.97
2023-08-29T23:10:15.324Z,2.90
2023-08-29T23:12:41.526Z,2.72
2023-08-29T23:15:07.721Z,2.85
2023-08-29T23:17:34.089Z,2.95
2023-08-29T23:20:00.281Z,2.72
2023-08-29T23:22:26.504Z,2.80
2023-08-29T23:24:52.755Z,2.50
2023-08-29T23:27:18.976Z,2.97
2023-08-29T23:29:45.269Z,2.35
2023-08-29T23:32:11.441Z,2.95
2023-08-29T23:34:37.685Z,2.85
2023-08-29T23:37:03.907Z,2.78
2023-08-29T23:39:30.116Z,2.25
2023-08-29T23:41:56.344Z,2.67
2023-08-29T23:44:24.179Z,2.45
2023-08-29T23:46:50.474Z,2.90
2023-08-29T23:49:16.775Z,2.85
2023-08-29T23:51:43.023Z,3.63
2023-08-29T23:54:09.242Z,3.13
2023-08-29T23:56:35.489Z,3.00
2023-08-29T23:59:01.773Z,3.13
